createdAt,value
2023-05-11T07:50:56.074Z,3.55
2023-05-11T07:53:22.715Z,3.63
2023-05-11T07:55:49.557Z,4.13
2023-05-11T07:58:16.509Z,3.95
2023-05-11T08:00:43.264Z,4.10
2023-05-11T08:03:10.027Z,4.30
2023-05-11T08:05:38.244Z,4.60
2023-05-11T08:08:05.225Z,4.18
2023-05-11T08:10:32.146Z,4.22
2023-05-11T08:12:59.300Z,4.10
2023-05-11T08:15:26.023Z,3.97
2023-05-11T08:17:52.934Z,3.90
2023-05-11T08:20:19.599Z,4.25
2023-05-11T08:22:46.650Z,4.05
2023-05-11T08:25:13.996Z,3.88
2023-05-11T08:27:40.834Z,3.63
2023-05-11T08:30:10.857Z,4.18
2023-05-11T08:32:57.247Z,3.95
2023-05-11T08:35:25.689Z,3.58
2023-05-11T08:37:52.323Z,3.90
2023-05-11T08:40:20.446Z,3.90
2023-05-11T08:42:48.858Z,3.63
2023-05-11T08:45:15.632Z,4.32
2023-05-11T08:47:42.465Z,3.80
2023-05-11T08:50:09.471Z,3.80
2023-05-11T08:52:36.356Z,4.05
2023-05-11T08:55:03.098Z,3.42
2023-05-11T08:57:32.166Z,4.18
2023-05-11T08:59:59.536Z,4.00
2023-05-11T09:02:26.665Z,4.22
2023-05-11T09:04:53.804Z,3.85
2023-05-11T09:07:21.734Z,4.10
2023-05-11T09:09:48.489Z,3.97
2023-05-11T09:12:16.209Z,4.20
2023-05-11T09:14:43.389Z,4.72
2023-05-11T09:17:10.602Z,4.28
2023-05-11T09:19:37.410Z,4.00
2023-05-11T09:22:05.627Z,3.97
2023-05-11T09:24:32.738Z,4.43
2023-05-11T09:27:09.966Z,4.03
2023-05-11T09:29:36.716Z,3.72
2023-05-11T09:32:03.599Z,3.92
2023-05-11T09:34:30.350Z,3.58
2023-05-11T09:36:57.934Z,4.20
2023-05-11T09:39:39.549Z,4.38
2023-05-11T09:42:17.837Z,4.63
2023-05-11T09:44:45.231Z,3.55
2023-05-11T09:47:13.170Z,4.05
2023-05-11T09:49:43.340Z,4.18
2023-05-11T09:52:11.132Z,3.97
2023-05-11T09:54:43.031Z,4.55
2023-05-11T09:57:22.782Z,4.53
2023-05-11T09:59:50.160Z,4.57
2023-05-11T10:02:19.805Z,3.88
2023-05-11T10:04:47.178Z,4.30
2023-05-11T10:07:34.169Z,3.85
2023-05-11T10:10:01.759Z,3.92
2023-05-11T10:12:29.021Z,4.03
2023-05-11T10:14:57.430Z,4.25
2023-05-11T10:17:25.407Z,4.60
2023-05-11T10:19:54.807Z,4.57
2023-05-11T10:22:22.468Z,4.32
2023-05-11T10:24:50.274Z,4.40
2023-05-11T10:27:17.376Z,4.05
2023-05-11T10:29:44.290Z,3.95
2023-05-11T10:32:12.026Z,3.90
2023-05-11T10:34:42.186Z,3.60
2023-05-11T10:37:09.375Z,3.75
2023-05-11T10:39:40.409Z,3.80
2023-05-11T10:42:07.369Z,4.18
2023-05-11T10:44:37.116Z,4.32
2023-05-11T10:47:19.560Z,3.85
2023-05-11T10:49:58.808Z,3.75
2023-05-11T10:52:44.041Z,4.03
2023-05-11T10:55:16.938Z,3.83
2023-05-11T10:58:02.536Z,3.90
2023-05-11T11:00:43.995Z,3.38
2023-05-11T11:05:40.749Z,3.72
2023-05-11T11:08:09.494Z,3.85
2023-05-11T11:10:41.057Z,4.10
2023-05-11T11:13:09.046Z,3.85
2023-05-11T11:15:56.933Z,3.72
2023-05-11T11:18:23.866Z,3.33
2023-05-11T11:20:52.570Z,3.72
2023-05-11T11:23:38.321Z,4.45
2023-05-11T11:26:05.201Z,3.80
2023-05-11T11:28:51.454Z,3.63
2023-05-11T11:31:28.365Z,4.07
2023-05-11T11:34:00.991Z,3.42
2023-05-11T11:36:59.951Z,3.88
2023-05-11T11:39:27.196Z,3.97
2023-05-11T11:42:07.507Z,3.90
2023-05-11T11:44:34.421Z,4.65
2023-05-11T11:47:14.338Z,3.88
2023-05-11T11:49:42.565Z,3.97
2023-05-11T11:52:13.872Z,3.78
2023-05-11T11:54:41.511Z,4.32
2023-05-11T11:57:27.028Z,3.78
2023-05-11T11:59:54.057Z,3.70
2023-05-11T12:02:21.208Z,4.43
2023-05-11T12:05:08.371Z,4.65
2023-05-11T12:07:36.406Z,3.85
2023-05-11T12:10:04.315Z,4.00
2023-05-11T12:12:31.367Z,4.57
2023-05-11T12:15:00.145Z,4.38
2023-05-11T12:17:29.553Z,4.50
2023-05-11T12:20:12.190Z,4.63
2023-05-11T12:22:38.949Z,4.50
2023-05-11T12:25:06.298Z,5.32
2023-05-11T12:27:33.098Z,4.85
2023-05-11T20:01:08.699Z,12.18
2023-05-11T20:03:35.629Z,13.68
2023-05-11T20:06:02.612Z,13.18
2023-05-11T20:08:29.605Z,13.65
2023-05-11T20:10:56.360Z,13.68
2023-05-11T20:13:23.137Z,15.13
2023-05-11T20:15:49.862Z,15.25
2023-05-11T20:23:09.694Z,16.40
2023-05-11T20:25:38.555Z,17.63
2023-05-11T20:28:05.251Z,18.48
2023-05-11T20:30:32.470Z,15.90
2023-05-11T20:35:28.925Z,16.98
2023-05-11T20:37:55.753Z,16.17
2023-05-11T20:40:22.436Z,14.30
2023-05-11T20:42:49.374Z,15.23
2023-05-11T20:45:16.250Z,13.70
2023-05-11T20:47:43.021Z,13.95
2023-05-11T20:50:11.034Z,14.32
2023-05-11T20:52:38.084Z,14.18
2023-05-11T20:55:05.003Z,13.57
2023-05-11T20:57:31.745Z,14.38
2023-05-11T21:02:28.572Z,13.85
2023-05-11T21:05:01.923Z,12.73
2023-05-11T21:07:32.049Z,12.30
2023-05-11T21:09:58.820Z,12.77
2023-05-11T21:12:25.545Z,12.30
2023-05-11T21:14:52.496Z,12.18
2023-05-11T21:17:20.040Z,12.52
2023-05-11T21:19:46.925Z,12.50
2023-05-11T21:22:13.630Z,12.00
2023-05-11T21:24:40.295Z,12.48
2023-05-11T21:27:07.039Z,11.60
2023-05-11T21:29:33.711Z,12.15
2023-05-11T21:32:00.516Z,12.00
2023-05-11T21:34:27.123Z,11.63
2023-05-11T21:36:53.837Z,11.35
2023-05-11T21:39:22.612Z,11.07
2023-05-11T21:41:49.466Z,12.88
2023-05-11T21:44:16.275Z,11.73
2023-05-11T21:46:42.994Z,11.18
2023-05-11T21:49:10.176Z,11.93
2023-05-11T21:51:36.969Z,12.63
2023-05-11T21:54:03.951Z,11.98
2023-05-11T21:56:31.509Z,11.60
2023-05-11T21:58:58.350Z,12.88
2023-05-11T22:01:25.242Z,12.38
2023-05-11T22:03:51.958Z,11.52
2023-05-11T22:06:21.128Z,11.18
2023-05-11T22:08:47.872Z,12.02
2023-05-11T22:11:14.654Z,11.25
2023-05-11T22:13:41.523Z,11.90
2023-05-11T22:16:08.241Z,12.65
2023-05-11T22:18:34.922Z,11.30
2023-05-11T22:21:01.703Z,13.13
2023-05-11T22:23:28.481Z,12.20
2023-05-11T22:25:55.743Z,12.18
2023-05-11T22:28:22.553Z,12.73
2023-05-11T22:30:49.248Z,12.55
2023-05-11T22:33:16.000Z,12.80
2023-05-11T22:35:42.690Z,12.18
2023-05-11T22:38:09.974Z,12.50
2023-05-11T22:40:36.824Z,12.90
2023-05-11T22:43:03.798Z,12.75
2023-05-11T22:45:30.656Z,12.43
2023-05-11T22:47:57.363Z,12.35
2023-05-11T22:50:24.075Z,12.38
2023-05-11T23:14:56.799Z,13.82
2023-05-11T23:17:23.664Z,12.93
2023-05-11T23:19:50.534Z,12.68
2023-05-11T23:22:17.199Z,12.52
2023-05-11T23:24:43.933Z,13.48
2023-05-11T23:27:10.621Z,12.63
2023-05-11T23:29:37.355Z,13.40
2023-05-11T23:32:04.407Z,14.20
